Hakuryoumaru No.15 — JD2439 — position and weather

sailwx.info

Track history (hours):
 
Tides and Currents Weather Stations Pressure Air Temp Water Temp Dewpoint Dewpoint Depression Visibility Wind Speed Wind Dir Waves Ship Positions

Hakuryoumaru No.15

Last reported at 2015-Mar-30 15:33 UTC. Time now 2015-Mar-30 16:21 UTC.
Position N 34°09' E 135°09'.

Length 80 m; draft 5.4 m.

Type: Tanker. MMSI: 431000243.

Date/timePositionNaut miles runAvg speedWind from/ knotsBaromVisibWave heightAir tempDewpointWater temp
2015-Mar-30 15:33N 34°09' E 135°09'0 0.0
2015-Mar-30 14:33N 34°09' E 135°09'1211.1
2015-Mar-30 13:31N 34°08' E 134°55'6 0.2
2015-Mar-29 06:19N 34°08' E 135°02'5 1.7
2015-Mar-29 03:31N 34°07' E 135°07'0 0.0
2015-Mar-29 01:15N 34°07' E 135°07'0 0.0
2015-Mar-29 00:33N 34°07' E 135°07'3 2.7
2015-Mar-28 23:34N 34°09' E 135°08'0 0.0
2015-Mar-28 22:33N 34°09' E 135°08'0 0.1
2015-Mar-28 21:34N 34°09' E 135°08'0 0.0
2015-Mar-28 20:34N 34°09' E 135°08'0 0.0
2015-Mar-28 19:33N 34°09' E 135°08'0 0.0
2015-Mar-28 18:34N 34°10' E 135°08'0 0.0
2015-Mar-28 17:33N 34°10' E 135°08'0 0.0
2015-Mar-28 16:33N 34°10' E 135°08'2 2.3
2015-Mar-28 15:33N 34°09' E 135°06'24410.5
2015-Mar-27 16:19N 34°53' E 139°57'68 9.8
2015-Mar-27 09:23N 35°41' E 140°55'41 2.9
2015-Mar-26 19:10N 36°23' E 140°55'1112.3
2015-Mar-26 18:18N 36°12' E 140°56'912.1
2015-Mar-26 17:32N 36°03' E 140°56'3912.2
2015-Mar-26 14:20N 35°25' E 140°45'1413.1
2015-Mar-26 13:16N 35°14' E 140°34'2414.0
2015-Mar-26 11:33N 34°59' E 140°11'2311.4
2015-Mar-26 09:33N 34°58' E 139°43'1212.3
2015-Mar-26 08:33N 35°10' E 139°45'1211.8
2015-Mar-26 07:33N 35°21' E 139°42'1111.3
2015-Mar-26 06:33N 35°30' E 139°50'0 0.4
2015-Mar-26 05:33N 35°30' E 139°51'8 8.3
2015-Mar-26 04:33N 35°29' E 140°01'0 0.0
2015-Mar-26 03:33N 35°29' E 140°01'0 0.0
2015-Mar-26 02:33N 35°29' E 140°01'0 0.2
2015-Mar-26 01:33N 35°29' E 140°01'2 2.2
2015-Mar-26 00:33N 35°31' E 139°59'0 0.0
2015-Mar-25 23:33N 35°31' E 139°59'0 0.0
2015-Mar-25 22:33N 35°31' E 139°59'0 0.0
2015-Mar-25 21:33N 35°31' E 139°59'0 0.0
2015-Mar-25 20:33N 35°31' E 139°59'0 0.0
2015-Mar-25 19:32N 35°31' E 139°59'0 0.0
2015-Mar-25 18:33N 35°31' E 139°59'0 0.0
2015-Mar-25 17:33N 35°31' E 139°59'0 0.0
2015-Mar-25 16:33N 35°31' E 139°59'5 5.0
2015-Mar-25 15:33N 35°29' E 139°54'1211.6
2015-Mar-25 14:33N 35°20' E 139°45'1211.7
2015-Mar-25 13:33N 35°08' E 139°45'242 8.0
2015-Mar-24 07:20N 34°02' E 135°03'6 1.5
2015-Mar-24 03:17N 34°07' E 135°08'2 3.2
2015-Mar-24 02:33N 34°09' E 135°09'0 0.0
2015-Mar-24 01:33N 34°09' E 135°09'0 0.0
2015-Mar-24 00:33N 34°09' E 135°09'0 0.0
2015-Mar-23 23:33N 34°09' E 135°09'0 0.0
2015-Mar-23 22:33N 34°09' E 135°09'0 0.1
2015-Mar-23 21:33N 34°09' E 135°09'0 0.0
2015-Mar-23 20:33N 34°09' E 135°09'0 0.0
2015-Mar-23 19:33N 34°09' E 135°09'0 0.0
2015-Mar-23 18:33N 34°09' E 135°09'0 0.0
2015-Mar-23 17:33N 34°09' E 135°09'0 0.0
2015-Mar-23 16:33N 34°09' E 135°09'0 0.0
2015-Mar-23 15:33N 34°09' E 135°09'0 0.0
2015-Mar-23 14:33N 34°09' E 135°09'0 0.0
2015-Mar-23 13:33N 34°09' E 135°09'0 0.0
2015-Mar-23 12:33N 34°09' E 135°09'0 0.0
2015-Mar-23 11:33N 34°09' E 135°09'0 0.0
2015-Mar-23 10:33N 34°09' E 135°09'0 0.0
2015-Mar-23 09:33N 34°09' E 135°09'0 0.1
2015-Mar-23 08:33N 34°09' E 135°09'0 0.0
2015-Mar-23 07:33N 34°09' E 135°09'1111.2
2015-Mar-23 06:32N 34°08' E 134°55'  
Track history (hours):
 
Tides and Currents Weather Stations Pressure Air Temp Water Temp Dewpoint Dewpoint Depression Visibility Wind Speed Wind Dir Waves Ship Positions

Hakuryoumaru No.15

Last reported at 2015-Mar-30 15:33 UTC. Time now 2015-Mar-30 16:21 UTC.
Position N 34°09' E 135°09'.

Length 80 m; draft 5.4 m.

Type: Tanker. MMSI: 431000243.

Date/timePositionNaut miles runAvg speedWind from/ knotsBaromVisibWave heightAir tempDewpointWater temp
2015-Mar-30 15:33N 34°09' E 135°09'0 0.0
2015-Mar-30 14:33N 34°09' E 135°09'1211.1
2015-Mar-30 13:31N 34°08' E 134°55'6 0.2
2015-Mar-29 06:19N 34°08' E 135°02'5 1.7
2015-Mar-29 03:31N 34°07' E 135°07'0 0.0
2015-Mar-29 01:15N 34°07' E 135°07'0 0.0
2015-Mar-29 00:33N 34°07' E 135°07'3 2.7
2015-Mar-28 23:34N 34°09' E 135°08'0 0.0
2015-Mar-28 22:33N 34°09' E 135°08'0 0.1
2015-Mar-28 21:34N 34°09' E 135°08'0 0.0
2015-Mar-28 20:34N 34°09' E 135°08'0 0.0
2015-Mar-28 19:33N 34°09' E 135°08'0 0.0
2015-Mar-28 18:34N 34°10' E 135°08'0 0.0
2015-Mar-28 17:33N 34°10' E 135°08'0 0.0
2015-Mar-28 16:33N 34°10' E 135°08'2 2.3
2015-Mar-28 15:33N 34°09' E 135°06'24410.5
2015-Mar-27 16:19N 34°53' E 139°57'68 9.8
2015-Mar-27 09:23N 35°41' E 140°55'41 2.9
2015-Mar-26 19:10N 36°23' E 140°55'1112.3
2015-Mar-26 18:18N 36°12' E 140°56'912.1
2015-Mar-26 17:32N 36°03' E 140°56'3912.2
2015-Mar-26 14:20N 35°25' E 140°45'1413.1
2015-Mar-26 13:16N 35°14' E 140°34'2414.0
2015-Mar-26 11:33N 34°59' E 140°11'2311.4
2015-Mar-26 09:33N 34°58' E 139°43'1212.3
2015-Mar-26 08:33N 35°10' E 139°45'1211.8
2015-Mar-26 07:33N 35°21' E 139°42'1111.3
2015-Mar-26 06:33N 35°30' E 139°50'0 0.4
2015-Mar-26 05:33N 35°30' E 139°51'8 8.3
2015-Mar-26 04:33N 35°29' E 140°01'0 0.0
2015-Mar-26 03:33N 35°29' E 140°01'0 0.0
2015-Mar-26 02:33N 35°29' E 140°01'0 0.2
2015-Mar-26 01:33N 35°29' E 140°01'2 2.2
2015-Mar-26 00:33N 35°31' E 139°59'0 0.0
2015-Mar-25 23:33N 35°31' E 139°59'0 0.0
2015-Mar-25 22:33N 35°31' E 139°59'0 0.0
2015-Mar-25 21:33N 35°31' E 139°59'0 0.0
2015-Mar-25 20:33N 35°31' E 139°59'0 0.0
2015-Mar-25 19:32N 35°31' E 139°59'0 0.0
2015-Mar-25 18:33N 35°31' E 139°59'0 0.0
2015-Mar-25 17:33N 35°31' E 139°59'0 0.0
2015-Mar-25 16:33N 35°31' E 139°59'5 5.0
2015-Mar-25 15:33N 35°29' E 139°54'1211.6
2015-Mar-25 14:33N 35°20' E 139°45'1211.7
2015-Mar-25 13:33N 35°08' E 139°45'242 8.0
2015-Mar-24 07:20N 34°02' E 135°03'6 1.5
2015-Mar-24 03:17N 34°07' E 135°08'2 3.2
2015-Mar-24 02:33N 34°09' E 135°09'0 0.0
2015-Mar-24 01:33N 34°09' E 135°09'0 0.0
2015-Mar-24 00:33N 34°09' E 135°09'0 0.0
2015-Mar-23 23:33N 34°09' E 135°09'0 0.0
2015-Mar-23 22:33N 34°09' E 135°09'0 0.1
2015-Mar-23 21:33N 34°09' E 135°09'0 0.0
2015-Mar-23 20:33N 34°09' E 135°09'0 0.0
2015-Mar-23 19:33N 34°09' E 135°09'0 0.0
2015-Mar-23 18:33N 34°09' E 135°09'0 0.0
2015-Mar-23 17:33N 34°09' E 135°09'0 0.0
2015-Mar-23 16:33N 34°09' E 135°09'0 0.0
2015-Mar-23 15:33N 34°09' E 135°09'0 0.0
2015-Mar-23 14:33N 34°09' E 135°09'0 0.0
2015-Mar-23 13:33N 34°09' E 135°09'0 0.0
2015-Mar-23 12:33N 34°09' E 135°09'0 0.0
2015-Mar-23 11:33N 34°09' E 135°09'0 0.0
2015-Mar-23 10:33N 34°09' E 135°09'0 0.0
2015-Mar-23 09:33N 34°09' E 135°09'0 0.1
2015-Mar-23 08:33N 34°09' E 135°09'0 0.0
2015-Mar-23 07:33N 34°09' E 135°09'1111.2
2015-Mar-23 06:32N 34°08' E 134°55'  

Dump ship's entire track history